createdAt,value
2022-09-14T00:02:13.671Z,99.90
2022-09-14T00:05:15.592Z,99.90
2022-09-14T00:08:17.451Z,99.90
2022-09-14T00:11:19.583Z,99.90
2022-09-14T00:14:21.509Z,99.90
2022-09-14T00:17:23.372Z,99.90
2022-09-14T00:20:25.229Z,99.90
2022-09-14T00:23:27.134Z,99.90
2022-09-14T00:26:28.953Z,99.90
2022-09-14T00:29:31.153Z,99.90
2022-09-14T00:32:32.972Z,99.90
2022-09-14T00:35:35.825Z,99.90
2022-09-14T00:38:37.745Z,99.90
2022-09-14T00:41:41.892Z,99.90
2022-09-14T00:44:43.746Z,99.90
2022-09-14T00:47:46.909Z,99.90
2022-09-14T00:50:48.875Z,99.90
2022-09-14T00:53:50.737Z,99.90
2022-09-14T00:56:52.773Z,99.90
2022-09-14T00:59:54.624Z,99.90
2022-09-14T01:02:56.535Z,99.90
2022-09-14T01:06:12.012Z,99.90
2022-09-14T01:09:22.995Z,99.90
2022-09-14T01:12:50.831Z,99.90
2022-09-14T01:16:14.562Z,99.90
2022-09-14T01:19:38.830Z,99.90
2022-09-14T01:22:48.523Z,99.90
2022-09-14T01:26:00.593Z,99.90
2022-09-14T01:29:09.128Z,99.90
2022-09-14T01:32:27.922Z,99.90
2022-09-14T01:35:49.572Z,99.90
2022-09-14T01:38:51.811Z,99.90
2022-09-14T01:41:54.186Z,99.90
2022-09-14T01:44:58.289Z,99.90
2022-09-14T01:48:04.881Z,99.90
2022-09-14T01:51:10.178Z,99.90
2022-09-14T01:54:41.906Z,99.90
2022-09-14T01:57:46.495Z,99.90
2022-09-14T02:00:48.424Z,99.90
2022-09-14T02:03:53.567Z,99.90
2022-09-14T02:06:56.592Z,99.90
2022-09-14T02:09:59.220Z,99.90
2022-09-14T02:13:01.020Z,99.90
2022-09-14T02:16:02.909Z,99.90
2022-09-14T02:19:04.886Z,99.90
2022-09-14T02:22:06.796Z,99.90
2022-09-14T02:25:08.838Z,99.90
2022-09-14T02:28:10.700Z,99.90
2022-09-14T02:31:21.917Z,99.90
2022-09-14T02:34:39.096Z,99.90
2022-09-14T02:37:46.309Z,99.90
2022-09-14T02:40:55.342Z,99.90
2022-09-14T02:44:18.618Z,99.90
2022-09-14T02:47:30.787Z,99.90
2022-09-14T02:50:41.525Z,99.90
2022-09-14T02:53:50.588Z,99.90
2022-09-14T02:56:52.421Z,99.90
2022-09-14T02:59:55.043Z,99.90
2022-09-14T03:02:57.254Z,99.90
2022-09-14T03:05:59.103Z,99.90
2022-09-14T03:09:01.022Z,99.90
2022-09-14T03:12:02.949Z,99.90
2022-09-14T03:15:06.117Z,99.90
2022-09-14T03:18:12.270Z,99.90
2022-09-14T03:21:16.753Z,99.90
2022-09-14T03:24:18.564Z,99.90
2022-09-14T03:27:20.419Z,99.90
2022-09-14T03:30:22.304Z,99.90
2022-09-14T03:33:24.143Z,99.90
2022-09-14T03:36:27.506Z,99.90
2022-09-14T03:39:29.578Z,99.90
2022-09-14T03:42:31.407Z,99.90
2022-09-14T03:45:33.265Z,99.90
2022-09-14T03:48:35.215Z,99.90
2022-09-14T03:51:37.124Z,99.90
2022-09-14T03:54:38.949Z,99.90
2022-09-14T03:57:40.772Z,99.90
2022-09-14T04:00:42.796Z,99.90
2022-09-14T04:03:44.840Z,99.90
2022-09-14T04:06:47.565Z,99.90
2022-09-14T04:09:49.467Z,99.90
2022-09-14T04:12:51.332Z,99.90
2022-09-14T04:15:57.496Z,99.90
2022-09-14T04:18:59.394Z,99.90
2022-09-14T04:22:01.292Z,99.90
2022-09-14T04:25:03.247Z,99.90
2022-09-14T04:28:19.738Z,99.90
2022-09-14T04:31:22.798Z,99.90
2022-09-14T04:34:24.861Z,99.90
2022-09-14T04:37:26.729Z,99.90
2022-09-14T04:40:29.135Z,99.90
2022-09-14T04:43:31.659Z,99.90
2022-09-14T04:46:36.896Z,99.90
2022-09-14T04:49:38.810Z,99.90
2022-09-14T04:52:40.675Z,99.90
2022-09-14T04:55:42.468Z,99.90
2022-09-14T04:58:50.682Z,99.90
2022-09-14T05:01:53.420Z,99.90
2022-09-14T05:04:55.303Z,99.90
2022-09-14T05:07:57.147Z,99.90
2022-09-14T05:10:59.090Z,99.90
2022-09-14T05:14:01.300Z,99.90
2022-09-14T05:17:04.549Z,99.90
2022-09-14T05:20:07.064Z,99.90
2022-09-14T05:23:09.014Z,99.90
2022-09-14T05:26:10.964Z,99.90
2022-09-14T05:29:14.119Z,99.90
2022-09-14T05:32:15.980Z,99.90
2022-09-14T05:35:17.815Z,99.90
2022-09-14T05:38:19.706Z,99.90
2022-09-14T05:41:21.565Z,99.90
2022-09-14T05:44:23.385Z,99.90
2022-09-14T05:47:25.193Z,99.90
2022-09-14T05:50:27.012Z,99.90
2022-09-14T05:53:29.044Z,99.90
2022-09-14T05:56:31.962Z,99.90
2022-09-14T05:59:33.828Z,99.90
2022-09-14T06:02:35.705Z,99.90
2022-09-14T06:05:37.686Z,99.90
2022-09-14T06:08:39.764Z,99.90
2022-09-14T06:11:41.628Z,99.90
2022-09-14T06:14:43.433Z,99.90
2022-09-14T06:17:45.280Z,99.90
2022-09-14T06:20:51.545Z,99.90
2022-09-14T06:23:53.484Z,99.90
2022-09-14T06:26:55.524Z,99.90
2022-09-14T06:29:57.384Z,99.90
2022-09-14T06:32:59.173Z,99.90
2022-09-14T06:36:02.841Z,99.90
2022-09-14T06:39:04.707Z,99.90
2022-09-14T06:42:06.658Z,99.90
2022-09-14T06:45:09.008Z,99.90
2022-09-14T06:48:10.843Z,99.90
2022-09-14T06:51:14.822Z,99.90
2022-09-14T06:54:17.330Z,99.90
2022-09-14T06:57:19.191Z,99.90
2022-09-14T07:00:21.636Z,99.90
2022-09-14T07:03:23.453Z,99.90
2022-09-14T07:06:26.654Z,99.90
2022-09-14T07:09:28.509Z,99.90
2022-09-14T07:12:30.412Z,99.90
2022-09-14T07:15:33.356Z,99.90
2022-09-14T07:18:35.512Z,99.90
2022-09-14T07:21:37.442Z,99.90
2022-09-14T07:24:39.301Z,99.90
2022-09-14T07:27:41.242Z,99.90
2022-09-14T07:30:43.129Z,99.90
2022-09-14T07:33:46.050Z,99.90
2022-09-14T07:36:47.884Z,99.90
2022-09-14T07:39:49.812Z,99.90
2022-09-14T07:42:57.560Z,99.90
2022-09-14T07:46:04.296Z,99.90
2022-09-14T07:49:07.000Z,99.90
2022-09-14T07:52:08.955Z,99.90
2022-09-14T07:55:12.554Z,99.90
2022-09-14T07:58:14.388Z,99.90
2022-09-14T08:01:19.523Z,99.90
2022-09-14T08:04:21.468Z,99.90
2022-09-14T08:07:25.889Z,99.90
2022-09-14T08:10:27.678Z,99.90
2022-09-14T08:13:29.446Z,99.90
2022-09-14T08:16:32.087Z,99.90
2022-09-14T08:19:33.903Z,99.90
2022-09-14T08:22:35.675Z,99.90
2022-09-14T08:25:37.498Z,99.90
2022-09-14T08:28:39.691Z,99.90
2022-09-14T08:31:42.644Z,99.90
2022-09-14T08:34:44.524Z,99.90
2022-09-14T08:37:47.383Z,99.90
2022-09-14T08:40:49.236Z,99.90
2022-09-14T08:43:53.803Z,99.90
2022-09-14T08:46:58.898Z,99.90
2022-09-14T08:50:12.575Z,99.90
2022-09-14T08:53:14.439Z,99.90
2022-09-14T08:56:18.548Z,99.90
2022-09-14T08:59:43.029Z,99.90
2022-09-14T09:03:17.617Z,99.90
2022-09-14T09:06:28.980Z,99.90
2022-09-14T09:09:49.864Z,99.90
2022-09-14T09:12:55.910Z,99.90
2022-09-14T09:15:59.994Z,99.90
2022-09-14T09:19:07.713Z,99.90
2022-09-14T09:22:13.833Z,99.90
2022-09-14T09:25:24.168Z,99.90
2022-09-14T09:28:27.020Z,99.90
2022-09-14T09:31:39.864Z,99.90
2022-09-14T09:35:15.911Z,99.90
2022-09-14T09:38:40.538Z,99.90
2022-09-14T09:42:22.920Z,99.90
2022-09-14T09:45:24.736Z,99.90
2022-09-14T09:48:48.476Z,99.90
2022-09-14T09:51:50.597Z,99.90
2022-09-14T09:54:52.717Z,99.90
2022-09-14T09:57:54.851Z,99.90
2022-09-14T10:01:01.902Z,99.90
2022-09-14T10:04:24.672Z,99.90
2022-09-14T10:07:26.769Z,99.90
2022-09-14T10:10:34.616Z,99.90
2022-09-14T10:13:38.835Z,99.60
2022-09-14T10:16:41.785Z,99.90
2022-09-14T10:19:48.428Z,99.90
2022-09-14T10:22:50.284Z,97.70
2022-09-14T10:25:53.721Z,95.90
2022-09-14T10:28:55.579Z,95.50
2022-09-14T10:32:05.124Z,94.80
2022-09-14T10:35:14.070Z,96.00
2022-09-14T10:38:37.834Z,96.10
2022-09-14T10:42:10.252Z,94.30
2022-09-14T10:45:19.309Z,89.70
2022-09-14T10:48:36.104Z,82.40
2022-09-14T10:51:42.279Z,88.30
2022-09-14T10:55:11.979Z,91.50
2022-09-14T10:58:31.705Z,85.30
2022-09-14T11:01:52.732Z,90.70
2022-09-14T11:05:09.993Z,92.00
2022-09-14T11:08:26.978Z,85.90
2022-09-14T11:11:49.588Z,88.00
2022-09-14T11:15:26.656Z,87.10
2022-09-14T11:18:36.388Z,79.90
2022-09-14T11:21:57.506Z,83.40
2022-09-14T11:25:13.755Z,84.70
2022-09-14T11:28:19.724Z,79.70
2022-09-14T11:31:35.955Z,80.70
2022-09-14T11:34:48.560Z,79.40
2022-09-14T11:37:53.084Z,70.30
2022-09-14T11:41:13.987Z,74.80
2022-09-14T11:44:33.101Z,77.40
2022-09-14T11:47:37.577Z,78.20
2022-09-14T11:50:39.393Z,74.70
2022-09-14T11:53:42.886Z,72.30
2022-09-14T11:56:48.260Z,67.60
2022-09-14T11:59:55.025Z,61.20
2022-09-14T12:03:19.276Z,64.20
2022-09-14T12:06:30.132Z,57.50
2022-09-14T12:09:37.550Z,47.60
2022-09-14T12:12:40.284Z,49.80
2022-09-14T12:15:42.170Z,50.40
2022-09-14T12:18:52.959Z,47.10
2022-09-14T12:21:54.773Z,32.60
2022-09-14T12:25:24.785Z,42.50
2022-09-14T12:28:36.076Z,35.20
2022-09-14T12:31:55.844Z,36.10
2022-09-14T12:35:34.423Z,30.20
2022-09-14T12:38:41.149Z,26.60
2022-09-14T12:41:42.976Z,29.60
2022-09-14T12:44:44.806Z,31.50
2022-09-14T12:47:51.048Z,34.30
2022-09-14T12:50:52.865Z,21.80
2022-09-14T12:54:09.212Z,21.60
2022-09-14T12:57:29.262Z,21.40
2022-09-14T13:00:36.622Z,20.90
2022-09-14T13:03:48.120Z,26.60
2022-09-14T13:06:50.044Z,23.40
2022-09-14T13:09:53.964Z,25.70
2022-09-14T13:12:55.788Z,27.60
2022-09-14T13:16:02.439Z,27.40
2022-09-14T13:19:08.082Z,25.90
2022-09-14T13:22:21.282Z,27.10
2022-09-14T13:25:41.324Z,16.40
2022-09-14T13:28:45.257Z,17.90
2022-09-14T13:31:47.160Z,22.90
2022-09-14T13:34:48.969Z,24.80
2022-09-14T13:37:50.849Z,21.90
2022-09-14T13:40:54.251Z,22.80
2022-09-14T13:43:56.594Z,22.70
2022-09-14T13:46:59.308Z,23.70
2022-09-14T13:50:01.340Z,22.60
2022-09-14T13:53:04.384Z,25.40
2022-09-14T13:56:19.655Z,22.50
2022-09-14T13:59:22.209Z,19.60
2022-09-14T14:02:24.125Z,21.20
2022-09-14T14:05:30.897Z,21.90
2022-09-14T14:08:35.395Z,23.30
2022-09-14T14:11:39.220Z,21.90
2022-09-14T14:14:41.049Z,22.90
2022-09-14T14:17:43.081Z,21.30
2022-09-14T14:20:45.036Z,21.40
2022-09-14T14:24:09.229Z,18.90
2022-09-14T14:27:25.830Z,20.40
2022-09-14T14:30:28.628Z,15.40
2022-09-14T14:33:30.461Z,18.80
2022-09-14T14:36:32.320Z,19.00
2022-09-14T14:39:34.171Z,19.30
2022-09-14T14:42:36.240Z,17.70
2022-09-14T14:45:38.167Z,19.60
2022-09-14T14:48:40.190Z,17.10
2022-09-14T14:51:42.045Z,18.80
2022-09-14T14:54:43.996Z,18.60
2022-09-14T14:57:46.002Z,17.70
2022-09-14T15:00:48.116Z,17.50
2022-09-14T15:03:50.696Z,17.30
2022-09-14T15:06:52.668Z,18.40
2022-09-14T15:09:57.659Z,19.10
2022-09-14T15:12:59.537Z,18.40
2022-09-14T15:16:01.532Z,16.30
2022-09-14T15:19:03.885Z,17.00
2022-09-14T15:22:05.725Z,17.60
2022-09-14T15:25:07.926Z,17.90
2022-09-14T15:28:09.763Z,16.40
2022-09-14T15:31:11.832Z,17.60
2022-09-14T15:34:13.657Z,16.50
2022-09-14T15:37:15.545Z,16.20
2022-09-14T15:40:17.485Z,16.50
2022-09-14T15:43:19.416Z,16.90
2022-09-14T15:46:21.223Z,16.20
2022-09-14T15:49:24.233Z,16.90
2022-09-14T15:52:26.259Z,16.00
2022-09-14T15:55:28.120Z,15.80
2022-09-14T15:58:30.581Z,15.60
2022-09-14T16:01:32.552Z,16.60
2022-09-14T16:04:37.776Z,15.90
2022-09-14T16:07:39.699Z,15.40
2022-09-14T16:10:41.537Z,16.60
2022-09-14T16:13:43.385Z,16.80
2022-09-14T16:16:45.342Z,16.60
2022-09-14T16:19:49.214Z,16.40
2022-09-14T16:22:51.261Z,15.20
2022-09-14T16:25:53.109Z,16.20
2022-09-14T16:28:55.267Z,17.20
2022-09-14T16:31:57.205Z,16.10
2022-09-14T16:34:59.127Z,16.80
2022-09-14T16:38:01.013Z,16.80
2022-09-14T16:41:02.934Z,16.50
2022-09-14T16:44:05.584Z,17.60
2022-09-14T16:47:07.473Z,17.70
2022-09-14T16:50:09.707Z,18.50
2022-09-14T16:53:11.656Z,17.50
2022-09-14T16:56:16.293Z,17.70
2022-09-14T16:59:19.401Z,19.10
2022-09-14T17:02:21.355Z,19.00
2022-09-14T17:05:23.283Z,19.70
2022-09-14T17:08:25.128Z,19.40
2022-09-14T17:11:28.101Z,18.90
2022-09-14T17:14:32.264Z,20.90
2022-09-14T17:17:34.268Z,21.40
2022-09-14T17:20:36.119Z,21.70
2022-09-14T17:23:37.908Z,21.30
2022-09-14T17:26:40.084Z,20.80
2022-09-14T17:29:41.924Z,22.30
2022-09-14T17:32:43.708Z,22.50
2022-09-14T17:35:49.555Z,22.70
2022-09-14T17:38:51.728Z,23.00
2022-09-14T17:41:53.564Z,23.50
2022-09-14T17:44:55.400Z,23.90
2022-09-14T17:47:57.219Z,24.60
2022-09-14T17:50:59.174Z,25.90
2022-09-14T17:54:00.995Z,27.40
2022-09-14T17:57:02.909Z,30.00
2022-09-14T18:00:05.647Z,28.90
2022-09-14T18:03:09.371Z,31.60
2022-09-14T18:06:12.241Z,32.70
2022-09-14T18:09:16.390Z,34.90
2022-09-14T18:12:19.849Z,36.30
2022-09-14T18:15:22.384Z,38.30
2022-09-14T18:18:24.356Z,41.30
2022-09-14T18:21:26.480Z,45.60
2022-09-14T18:24:28.319Z,49.40
2022-09-14T18:27:31.232Z,60.50
2022-09-14T18:30:33.254Z,53.30
2022-09-14T18:33:35.467Z,54.70
2022-09-14T18:36:37.334Z,57.20
2022-09-14T18:39:39.526Z,65.60
2022-09-14T18:42:41.333Z,58.20
2022-09-14T18:45:44.208Z,69.30
2022-09-14T18:48:47.087Z,61.40
2022-09-14T18:51:48.975Z,61.90
2022-09-14T18:54:50.853Z,63.60
2022-09-14T18:57:52.696Z,64.20
2022-09-14T19:00:54.612Z,63.60
2022-09-14T19:03:56.596Z,65.20
2022-09-14T19:06:58.481Z,65.10
2022-09-14T19:10:01.474Z,66.40
2022-09-14T19:13:04.344Z,64.20
2022-09-14T19:16:14.865Z,66.00
2022-09-14T19:19:17.007Z,70.00
2022-09-14T19:22:18.852Z,69.60
2022-09-14T19:25:20.851Z,70.20
2022-09-14T19:28:22.697Z,71.90
2022-09-14T19:31:24.779Z,73.60
2022-09-14T19:34:27.264Z,73.00
2022-09-14T19:37:32.016Z,71.80
2022-09-14T19:40:33.903Z,71.50
2022-09-14T19:43:35.955Z,69.60
2022-09-14T19:46:39.583Z,68.90
2022-09-14T19:49:41.747Z,65.10
2022-09-14T19:52:43.645Z,64.00
2022-09-14T19:55:45.483Z,63.20
2022-09-14T19:58:48.784Z,62.40
2022-09-14T20:01:51.095Z,61.20
2022-09-14T20:04:53.079Z,62.30
2022-09-14T20:07:55.256Z,63.20
2022-09-14T20:10:57.114Z,63.60
2022-09-14T20:14:00.329Z,62.60
2022-09-14T20:17:02.355Z,63.90
2022-09-14T20:20:05.309Z,63.80
2022-09-14T20:23:07.129Z,63.70
2022-09-14T20:26:10.196Z,64.30
2022-09-14T20:29:12.080Z,63.70
2022-09-14T20:32:16.340Z,65.10
2022-09-14T20:35:21.411Z,65.10
2022-09-14T20:38:23.296Z,64.50
2022-09-14T20:41:27.359Z,63.60
2022-09-14T20:44:29.249Z,63.70
2022-09-14T20:47:31.064Z,63.60
2022-09-14T20:50:32.917Z,65.00
2022-09-14T20:53:37.085Z,63.60
2022-09-14T20:56:39.032Z,63.60
2022-09-14T20:59:41.023Z,63.60
2022-09-14T21:02:42.969Z,63.70
2022-09-14T21:05:44.859Z,63.60
2022-09-14T21:08:46.951Z,64.60
2022-09-14T21:11:48.829Z,64.00
2022-09-14T21:14:50.667Z,64.50
2022-09-14T21:17:52.522Z,64.70
2022-09-14T21:20:54.369Z,64.90
2022-09-14T21:23:57.050Z,66.10
2022-09-14T21:26:58.896Z,66.30
2022-09-14T21:30:00.728Z,67.30
2022-09-14T21:33:02.591Z,67.30
2022-09-14T21:36:14.319Z,68.40
2022-09-14T21:39:19.296Z,69.60
2022-09-14T21:42:21.153Z,70.20
2022-09-14T21:45:22.958Z,71.60
2022-09-14T21:48:25.185Z,72.60
2022-09-14T21:51:31.986Z,73.20
2022-09-14T21:54:33.911Z,74.10
2022-09-14T21:57:35.764Z,74.30
2022-09-14T22:00:37.615Z,74.90
2022-09-14T22:03:40.436Z,75.10
2022-09-14T22:06:42.334Z,76.30
2022-09-14T22:09:44.203Z,75.50
2022-09-14T22:12:47.869Z,75.60
2022-09-14T22:15:49.742Z,76.30
2022-09-14T22:18:56.970Z,76.70
2022-09-14T22:21:58.857Z,77.70
2022-09-14T22:25:00.673Z,77.40
2022-09-14T22:28:02.636Z,77.90
2022-09-14T22:31:04.615Z,77.90
2022-09-14T22:34:06.741Z,78.00
2022-09-14T22:37:08.609Z,78.10
2022-09-14T22:40:10.755Z,78.10
2022-09-14T22:43:12.678Z,78.90
2022-09-14T22:46:15.007Z,76.90
2022-09-14T22:49:16.903Z,77.50
2022-09-14T22:52:18.738Z,78.30
2022-09-14T22:55:20.957Z,77.30
2022-09-14T22:58:24.436Z,73.70
2022-09-14T23:01:28.706Z,76.20
2022-09-14T23:04:31.217Z,75.40
2022-09-14T23:07:33.111Z,74.20
2022-09-14T23:10:38.231Z,73.50
2022-09-14T23:13:41.176Z,75.50
2022-09-14T23:16:45.159Z,73.40
2022-09-14T23:19:47.289Z,74.50
2022-09-14T23:22:49.138Z,72.80
2022-09-14T23:25:51.014Z,73.80
2022-09-14T23:29:01.467Z,74.40
2022-09-14T23:32:03.694Z,74.70
2022-09-14T23:35:07.283Z,73.90
2022-09-14T23:38:09.123Z,79.30
2022-09-14T23:41:11.099Z,74.70
2022-09-14T23:44:13.188Z,76.40
2022-09-14T23:47:15.285Z,75.40
2022-09-14T23:50:17.205Z,75.80
2022-09-14T23:53:19.044Z,76.00
2022-09-14T23:56:20.948Z,76.10
2022-09-14T23:59:22.886Z,77.10
